sensor_id;sensor_type;location;lat;lon;timestamp;temperature;humidity
4687;DHT22;2357;47.316;-1.348;2023-08-08T00:00:10;17.40;99.90
4687;DHT22;2357;47.316;-1.348;2023-08-08T00:02:36;17.40;99.90
4687;DHT22;2357;47.316;-1.348;2023-08-08T00:05:02;17.30;99.90
4687;DHT22;2357;47.316;-1.348;2023-08-08T00:07:28;17.30;99.90
4687;DHT22;2357;47.316;-1.348;2023-08-08T00:09:57;17.30;99.90
4687;DHT22;2357;47.316;-1.348;2023-08-08T00:12:23;17.30;99.90
4687;DHT22;2357;47.316;-1.348;2023-08-08T00:14:49;17.30;99.90
4687;DHT22;2357;47.316;-1.348;2023-08-08T00:17:15;17.40;99.90
4687;DHT22;2357;47.316;-1.348;2023-08-08T00:19:40;17.40;99.90
4687;DHT22;2357;47.316;-1.348;2023-08-08T00:22:06;17.40;99.90
4687;DHT22;2357;47.316;-1.348;2023-08-08T00:24:32;17.40;99.90
4687;DHT22;2357;47.316;-1.348;2023-08-08T00:26:57;17.30;99.90
4687;DHT22;2357;47.316;-1.348;2023-08-08T00:29:23;17.40;99.90
4687;DHT22;2357;47.316;-1.348;2023-08-08T00:31:49;17.30;99.90
4687;DHT22;2357;47.316;-1.348;2023-08-08T00:34:14;17.30;99.90
4687;DHT22;2357;47.316;-1.348;2023-08-08T00:36:40;17.40;99.90
4687;DHT22;2357;47.316;-1.348;2023-08-08T00:39:05;17.30;99.90
4687;DHT22;2357;47.316;-1.348;2023-08-08T00:41:32;17.20;99.90
4687;DHT22;2357;47.316;-1.348;2023-08-08T00:43:58;17.20;99.90
4687;DHT22;2357;47.316;-1.348;2023-08-08T00:46:23;17.30;99.90
4687;DHT22;2357;47.316;-1.348;2023-08-08T00:48:53;17.30;99.90
4687;DHT22;2357;47.316;-1.348;2023-08-08T00:51:20;17.20;99.90
4687;DHT22;2357;47.316;-1.348;2023-08-08T00:53:47;17.30;99.90
4687;DHT22;2357;47.316;-1.348;2023-08-08T00:56:16;17.30;99.90
4687;DHT22;2357;47.316;-1.348;2023-08-08T00:58:43;17.30;99.90
4687;DHT22;2357;47.316;-1.348;2023-08-08T01:01:11;17.40;99.90
4687;DHT22;2357;47.316;-1.348;2023-08-08T01:03:37;17.40;99.90
4687;DHT22;2357;47.316;-1.348;2023-08-08T01:06:23;17.30;99.90
4687;DHT22;2357;47.316;-1.348;2023-08-08T01:09:13;17.30;99.90
4687;DHT22;2357;47.316;-1.348;2023-08-08T01:11:44;17.30;99.90
4687;DHT22;2357;47.316;-1.348;2023-08-08T01:14:13;17.20;99.90
4687;DHT22;2357;47.316;-1.348;2023-08-08T01:16:40;17.20;99.90
4687;DHT22;2357;47.316;-1.348;2023-08-08T01:19:07;17.10;99.90
4687;DHT22;2357;47.316;-1.348;2023-08-08T01:21:37;17.10;99.90
4687;DHT22;2357;47.316;-1.348;2023-08-08T01:24:25;17.00;99.90
4687;DHT22;2357;47.316;-1.348;2023-08-08T01:26:53;17.00;99.90
4687;DHT22;2357;47.316;-1.348;2023-08-08T01:29:19;17.00;99.90
4687;DHT22;2357;47.316;-1.348;2023-08-08T01:31:44;17.00;99.90
4687;DHT22;2357;47.316;-1.348;2023-08-08T01:34:10;16.90;99.90
4687;DHT22;2357;47.316;-1.348;2023-08-08T01:36:48;16.90;99.90
4687;DHT22;2357;47.316;-1.348;2023-08-08T01:39:20;16.80;99.90
4687;DHT22;2357;47.316;-1.348;2023-08-08T01:41:48;16.80;99.90
4687;DHT22;2357;47.316;-1.348;2023-08-08T01:44:15;16.80;99.90
4687;DHT22;2357;47.316;-1.348;2023-08-08T01:46:40;16.80;99.90
4687;DHT22;2357;47.316;-1.348;2023-08-08T01:49:06;16.80;99.90
4687;DHT22;2357;47.316;-1.348;2023-08-08T01:51:32;16.80;99.90
4687;DHT22;2357;47.316;-1.348;2023-08-08T01:53:57;16.80;99.90
4687;DHT22;2357;47.316;-1.348;2023-08-08T01:56:23;16.80;99.90
4687;DHT22;2357;47.316;-1.348;2023-08-08T01:58:48;16.80;99.90
4687;DHT22;2357;47.316;-1.348;2023-08-08T02:01:14;16.70;99.90
4687;DHT22;2357;47.316;-1.348;2023-08-08T02:03:40;16.80;99.90
4687;DHT22;2357;47.316;-1.348;2023-08-08T02:06:05;16.80;99.90
4687;DHT22;2357;47.316;-1.348;2023-08-08T02:08:31;16.70;99.90
4687;DHT22;2357;47.316;-1.348;2023-08-08T02:10:56;16.70;99.90
4687;DHT22;2357;47.316;-1.348;2023-08-08T02:13:22;16.80;99.90
4687;DHT22;2357;47.316;-1.348;2023-08-08T02:15:48;16.90;99.90
4687;DHT22;2357;47.316;-1.348;2023-08-08T02:18:13;16.80;99.90
4687;DHT22;2357;47.316;-1.348;2023-08-08T02:20:39;16.80;99.90
4687;DHT22;2357;47.316;-1.348;2023-08-08T02:23:04;16.80;99.90
4687;DHT22;2357;47.316;-1.348;2023-08-08T02:25:30;16.70;99.90
4687;DHT22;2357;47.316;-1.348;2023-08-08T02:27:56;16.80;99.90
4687;DHT22;2357;47.316;-1.348;2023-08-08T02:30:22;16.80;99.90
4687;DHT22;2357;47.316;-1.348;2023-08-08T02:32:48;16.80;99.90
4687;DHT22;2357;47.316;-1.348;2023-08-08T02:35:13;16.80;99.90
4687;DHT22;2357;47.316;-1.348;2023-08-08T02:37:39;16.80;99.90
4687;DHT22;2357;47.316;-1.348;2023-08-08T02:40:06;16.80;99.90
4687;DHT22;2357;47.316;-1.348;2023-08-08T02:42:32;16.70;99.90
4687;DHT22;2357;47.316;-1.348;2023-08-08T02:44:57;16.80;99.90
4687;DHT22;2357;47.316;-1.348;2023-08-08T02:47:23;16.70;99.90
4687;DHT22;2357;47.316;-1.348;2023-08-08T02:49:49;16.70;99.90
4687;DHT22;2357;47.316;-1.348;2023-08-08T02:52:14;16.60;99.90
4687;DHT22;2357;47.316;-1.348;2023-08-08T02:54:40;16.60;99.90
4687;DHT22;2357;47.316;-1.348;2023-08-08T02:57:06;16.60;99.90
4687;DHT22;2357;47.316;-1.348;2023-08-08T02:59:32;16.50;99.90
4687;DHT22;2357;47.316;-1.348;2023-08-08T03:01:57;16.40;99.90
4687;DHT22;2357;47.316;-1.348;2023-08-08T03:04:23;16.40;99.90
4687;DHT22;2357;47.316;-1.348;2023-08-08T03:06:49;16.40;99.90
4687;DHT22;2357;47.316;-1.348;2023-08-08T03:09:14;16.40;99.90
4687;DHT22;2357;47.316;-1.348;2023-08-08T03:11:40;16.30;99.90
4687;DHT22;2357;47.316;-1.348;2023-08-08T03:14:08;16.30;99.90
4687;DHT22;2357;47.316;-1.348;2023-08-08T03:16:37;16.20;99.90
4687;DHT22;2357;47.316;-1.348;2023-08-08T03:19:02;16.20;99.90
4687;DHT22;2357;47.316;-1.348;2023-08-08T03:21:28;16.20;99.90
4687;DHT22;2357;47.316;-1.348;2023-08-08T03:23:54;16.20;99.90
4687;DHT22;2357;47.316;-1.348;2023-08-08T03:26:20;16.20;99.90
4687;DHT22;2357;47.316;-1.348;2023-08-08T03:28:45;16.20;99.90
4687;DHT22;2357;47.316;-1.348;2023-08-08T03:31:15;16.10;99.90
4687;DHT22;2357;47.316;-1.348;2023-08-08T03:33:42;16.10;99.90
4687;DHT22;2357;47.316;-1.348;2023-08-08T03:36:08;16.10;99.90
4687;DHT22;2357;47.316;-1.348;2023-08-08T03:38:34;16.00;99.90
4687;DHT22;2357;47.316;-1.348;2023-08-08T03:41:00;15.90;99.90
4687;DHT22;2357;47.316;-1.348;2023-08-08T03:43:26;16.00;99.90
4687;DHT22;2357;47.316;-1.348;2023-08-08T03:45:52;16.00;99.90
4687;DHT22;2357;47.316;-1.348;2023-08-08T03:48:17;16.00;99.90
4687;DHT22;2357;47.316;-1.348;2023-08-08T03:50:43;16.00;99.90
4687;DHT22;2357;47.316;-1.348;2023-08-08T03:53:09;15.90;99.90
4687;DHT22;2357;47.316;-1.348;2023-08-08T03:55:34;16.00;99.90
4687;DHT22;2357;47.316;-1.348;2023-08-08T03:58:00;16.10;99.90
4687;DHT22;2357;47.316;-1.348;2023-08-08T04:00:25;16.10;99.90
4687;DHT22;2357;47.316;-1.348;2023-08-08T04:02:51;16.20;99.90
4687;DHT22;2357;47.316;-1.348;2023-08-08T04:05:17;16.20;99.90
4687;DHT22;2357;47.316;-1.348;2023-08-08T04:07:42;16.30;99.90
4687;DHT22;2357;47.316;-1.348;2023-08-08T04:10:08;16.30;99.90
4687;DHT22;2357;47.316;-1.348;2023-08-08T04:12:34;16.30;99.90
4687;DHT22;2357;47.316;-1.348;2023-08-08T04:14:59;16.30;99.90
4687;DHT22;2357;47.316;-1.348;2023-08-08T04:17:25;16.30;99.90
4687;DHT22;2357;47.316;-1.348;2023-08-08T04:19:50;16.30;99.90
4687;DHT22;2357;47.316;-1.348;2023-08-08T04:22:16;16.30;99.90
4687;DHT22;2357;47.316;-1.348;2023-08-08T04:24:42;16.30;99.90
4687;DHT22;2357;47.316;-1.348;2023-08-08T04:27:08;16.30;99.90
4687;DHT22;2357;47.316;-1.348;2023-08-08T04:29:34;16.30;99.90
4687;DHT22;2357;47.316;-1.348;2023-08-08T04:31:59;16.30;99.90
4687;DHT22;2357;47.316;-1.348;2023-08-08T04:34:25;16.30;99.90
4687;DHT22;2357;47.316;-1.348;2023-08-08T04:36:51;16.30;99.90
4687;DHT22;2357;47.316;-1.348;2023-08-08T04:39:16;16.10;99.90
4687;DHT22;2357;47.316;-1.348;2023-08-08T04:41:42;16.20;99.90
4687;DHT22;2357;47.316;-1.348;2023-08-08T04:44:07;16.20;99.90
4687;DHT22;2357;47.316;-1.348;2023-08-08T04:46:33;16.20;99.90
4687;DHT22;2357;47.316;-1.348;2023-08-08T04:48:59;16.20;99.90
4687;DHT22;2357;47.316;-1.348;2023-08-08T04:51:24;16.20;99.90
4687;DHT22;2357;47.316;-1.348;2023-08-08T04:53:50;16.20;99.90
4687;DHT22;2357;47.316;-1.348;2023-08-08T04:56:15;16.20;99.90
4687;DHT22;2357;47.316;-1.348;2023-08-08T04:58:41;16.10;99.90
4687;DHT22;2357;47.316;-1.348;2023-08-08T05:01:07;16.10;99.90
4687;DHT22;2357;47.316;-1.348;2023-08-08T05:03:39;16.10;99.90
4687;DHT22;2357;47.316;-1.348;2023-08-08T05:06:04;16.10;99.90
4687;DHT22;2357;47.316;-1.348;2023-08-08T05:08:30;16.00;99.90
4687;DHT22;2357;47.316;-1.348;2023-08-08T05:10:56;16.00;99.90
4687;DHT22;2357;47.316;-1.348;2023-08-08T05:13:21;16.00;99.90
4687;DHT22;2357;47.316;-1.348;2023-08-08T05:15:47;15.90;99.90
4687;DHT22;2357;47.316;-1.348;2023-08-08T05:18:12;16.00;99.90
4687;DHT22;2357;47.316;-1.348;2023-08-08T05:20:38;15.90;99.90
4687;DHT22;2357;47.316;-1.348;2023-08-08T05:23:04;16.00;99.90
4687;DHT22;2357;47.316;-1.348;2023-08-08T05:25:30;16.00;99.90
4687;DHT22;2357;47.316;-1.348;2023-08-08T05:27:55;16.00;99.90
4687;DHT22;2357;47.316;-1.348;2023-08-08T05:30:21;16.00;99.90
4687;DHT22;2357;47.316;-1.348;2023-08-08T05:32:47;16.10;99.90
4687;DHT22;2357;47.316;-1.348;2023-08-08T05:35:13;16.10;99.90
4687;DHT22;2357;47.316;-1.348;2023-08-08T05:37:38;16.10;99.90
4687;DHT22;2357;47.316;-1.348;2023-08-08T05:40:04;16.20;99.90
4687;DHT22;2357;47.316;-1.348;2023-08-08T05:42:32;16.20;99.90
4687;DHT22;2357;47.316;-1.348;2023-08-08T05:44:57;16.20;99.90
4687;DHT22;2357;47.316;-1.348;2023-08-08T05:47:23;16.20;99.90
4687;DHT22;2357;47.316;-1.348;2023-08-08T05:49:48;16.10;99.90
4687;DHT22;2357;47.316;-1.348;2023-08-08T05:52:14;16.20;99.90
4687;DHT22;2357;47.316;-1.348;2023-08-08T05:54:40;16.20;99.90
4687;DHT22;2357;47.316;-1.348;2023-08-08T05:57:06;16.30;99.90
4687;DHT22;2357;47.316;-1.348;2023-08-08T05:59:32;16.40;99.90
4687;DHT22;2357;47.316;-1.348;2023-08-08T06:01:58;16.40;99.90
4687;DHT22;2357;47.316;-1.348;2023-08-08T06:04:24;16.50;99.90
4687;DHT22;2357;47.316;-1.348;2023-08-08T06:06:50;16.50;99.90
4687;DHT22;2357;47.316;-1.348;2023-08-08T06:09:16;16.50;99.90
4687;DHT22;2357;47.316;-1.348;2023-08-08T06:11:42;16.50;99.90
4687;DHT22;2357;47.316;-1.348;2023-08-08T06:14:08;16.40;99.90
4687;DHT22;2357;47.316;-1.348;2023-08-08T06:16:34;16.50;99.90
4687;DHT22;2357;47.316;-1.348;2023-08-08T06:18:59;16.50;99.90
4687;DHT22;2357;47.316;-1.348;2023-08-08T06:21:25;16.60;99.90
4687;DHT22;2357;47.316;-1.348;2023-08-08T06:23:51;16.70;99.90
4687;DHT22;2357;47.316;-1.348;2023-08-08T06:26:22;16.70;99.90
4687;DHT22;2357;47.316;-1.348;2023-08-08T06:28:48;16.70;99.90
4687;DHT22;2357;47.316;-1.348;2023-08-08T06:31:14;16.60;99.90
4687;DHT22;2357;47.316;-1.348;2023-08-08T06:33:40;16.60;99.90
4687;DHT22;2357;47.316;-1.348;2023-08-08T06:36:06;16.60;99.90
4687;DHT22;2357;47.316;-1.348;2023-08-08T06:38:31;16.60;99.90
4687;DHT22;2357;47.316;-1.348;2023-08-08T06:41:03;16.40;99.90
4687;DHT22;2357;47.316;-1.348;2023-08-08T06:43:30;16.50;99.90
4687;DHT22;2357;47.316;-1.348;2023-08-08T06:45:55;16.60;99.90
4687;DHT22;2357;47.316;-1.348;2023-08-08T06:48:21;16.70;99.90
4687;DHT22;2357;47.316;-1.348;2023-08-08T06:50:47;16.70;99.90
4687;DHT22;2357;47.316;-1.348;2023-08-08T06:53:12;16.70;99.90
4687;DHT22;2357;47.316;-1.348;2023-08-08T06:55:38;16.70;99.90
4687;DHT22;2357;47.316;-1.348;2023-08-08T06:58:04;16.80;99.90
4687;DHT22;2357;47.316;-1.348;2023-08-08T07:00:29;16.80;99.90
4687;DHT22;2357;47.316;-1.348;2023-08-08T07:02:55;16.80;99.90
4687;DHT22;2357;47.316;-1.348;2023-08-08T07:05:21;16.80;99.90
4687;DHT22;2357;47.316;-1.348;2023-08-08T07:07:52;16.80;99.90
4687;DHT22;2357;47.316;-1.348;2023-08-08T07:10:18;16.80;99.90
4687;DHT22;2357;47.316;-1.348;2023-08-08T07:12:44;16.80;99.90
4687;DHT22;2357;47.316;-1.348;2023-08-08T07:15:10;16.80;99.90
4687;DHT22;2357;47.316;-1.348;2023-08-08T07:17:36;16.80;99.90
4687;DHT22;2357;47.316;-1.348;2023-08-08T07:20:02;17.00;99.90
4687;DHT22;2357;47.316;-1.348;2023-08-08T07:22:28;17.10;99.90
4687;DHT22;2357;47.316;-1.348;2023-08-08T07:24:53;17.10;99.90
4687;DHT22;2357;47.316;-1.348;2023-08-08T07:27:19;17.20;99.90
4687;DHT22;2357;47.316;-1.348;2023-08-08T07:29:45;17.10;99.90
4687;DHT22;2357;47.316;-1.348;2023-08-08T07:32:10;17.20;99.90
4687;DHT22;2357;47.316;-1.348;2023-08-08T07:34:36;17.20;99.90
4687;DHT22;2357;47.316;-1.348;2023-08-08T07:37:02;17.30;99.90
4687;DHT22;2357;47.316;-1.348;2023-08-08T07:39:28;17.30;99.90
4687;DHT22;2357;47.316;-1.348;2023-08-08T07:41:54;17.30;99.90
4687;DHT22;2357;47.316;-1.348;2023-08-08T07:44:20;17.40;99.90
4687;DHT22;2357;47.316;-1.348;2023-08-08T07:46:45;17.40;99.90
4687;DHT22;2357;47.316;-1.348;2023-08-08T07:49:12;17.40;99.90
4687;DHT22;2357;47.316;-1.348;2023-08-08T07:51:38;17.40;99.90
4687;DHT22;2357;47.316;-1.348;2023-08-08T07:54:04;17.50;99.90
4687;DHT22;2357;47.316;-1.348;2023-08-08T07:56:34;17.50;99.90
4687;DHT22;2357;47.316;-1.348;2023-08-08T07:59:00;17.60;99.90
4687;DHT22;2357;47.316;-1.348;2023-08-08T08:01:27;17.60;99.90
4687;DHT22;2357;47.316;-1.348;2023-08-08T08:03:53;17.60;99.90
4687;DHT22;2357;47.316;-1.348;2023-08-08T08:06:18;17.60;99.90
4687;DHT22;2357;47.316;-1.348;2023-08-08T08:08:44;17.60;99.90
4687;DHT22;2357;47.316;-1.348;2023-08-08T08:11:09;17.70;99.90
4687;DHT22;2357;47.316;-1.348;2023-08-08T08:13:35;17.70;99.90
4687;DHT22;2357;47.316;-1.348;2023-08-08T08:16:00;17.70;99.90
4687;DHT22;2357;47.316;-1.348;2023-08-08T08:18:26;17.70;99.90
4687;DHT22;2357;47.316;-1.348;2023-08-08T08:20:52;17.80;99.90
4687;DHT22;2357;47.316;-1.348;2023-08-08T08:23:18;17.80;99.90
4687;DHT22;2357;47.316;-1.348;2023-08-08T08:25:44;18.00;99.90
4687;DHT22;2357;47.316;-1.348;2023-08-08T08:28:09;18.00;99.90
4687;DHT22;2357;47.316;-1.348;2023-08-08T08:30:35;18.00;99.90
4687;DHT22;2357;47.316;-1.348;2023-08-08T08:33:02;18.10;99.90
4687;DHT22;2357;47.316;-1.348;2023-08-08T08:35:29;18.30;99.90
4687;DHT22;2357;47.316;-1.348;2023-08-08T08:37:55;18.30;99.90
4687;DHT22;2357;47.316;-1.348;2023-08-08T08:40:20;18.40;99.90
4687;DHT22;2357;47.316;-1.348;2023-08-08T08:42:47;18.40;99.90
4687;DHT22;2357;47.316;-1.348;2023-08-08T08:45:13;18.60;99.90
4687;DHT22;2357;47.316;-1.348;2023-08-08T08:47:41;18.80;99.90
4687;DHT22;2357;47.316;-1.348;2023-08-08T08:50:08;18.80;99.90
4687;DHT22;2357;47.316;-1.348;2023-08-08T08:52:34;18.90;99.90
4687;DHT22;2357;47.316;-1.348;2023-08-08T08:55:00;19.00;99.90
4687;DHT22;2357;47.316;-1.348;2023-08-08T08:57:28;19.10;99.90
4687;DHT22;2357;47.316;-1.348;2023-08-08T08:59:54;19.20;99.90
4687;DHT22;2357;47.316;-1.348;2023-08-08T09:02:19;19.30;99.90
4687;DHT22;2357;47.316;-1.348;2023-08-08T09:04:46;19.30;99.90
4687;DHT22;2357;47.316;-1.348;2023-08-08T09:07:12;19.40;99.90
4687;DHT22;2357;47.316;-1.348;2023-08-08T09:09:38;19.50;99.90
4687;DHT22;2357;47.316;-1.348;2023-08-08T09:12:04;19.50;99.90
4687;DHT22;2357;47.316;-1.348;2023-08-08T09:14:31;19.60;99.90
4687;DHT22;2357;47.316;-1.348;2023-08-08T09:16:57;19.80;99.90
4687;DHT22;2357;47.316;-1.348;2023-08-08T09:19:24;19.80;99.90
4687;DHT22;2357;47.316;-1.348;2023-08-08T09:21:51;19.90;99.90
4687;DHT22;2357;47.316;-1.348;2023-08-08T09:24:17;20.00;99.90
4687;DHT22;2357;47.316;-1.348;2023-08-08T09:26:43;20.10;99.90
4687;DHT22;2357;47.316;-1.348;2023-08-08T09:29:12;20.00;99.90
4687;DHT22;2357;47.316;-1.348;2023-08-08T09:31:39;19.90;99.90
4687;DHT22;2357;47.316;-1.348;2023-08-08T09:34:05;19.80;99.90
4687;DHT22;2357;47.316;-1.348;2023-08-08T09:36:31;20.00;99.90
4687;DHT22;2357;47.316;-1.348;2023-08-08T09:38:58;20.30;99.90
4687;DHT22;2357;47.316;-1.348;2023-08-08T09:41:25;20.40;99.90
4687;DHT22;2357;47.316;-1.348;2023-08-08T09:43:52;20.30;99.90
4687;DHT22;2357;47.316;-1.348;2023-08-08T09:46:19;20.40;99.90
4687;DHT22;2357;47.316;-1.348;2023-08-08T09:48:45;20.50;99.90
4687;DHT22;2357;47.316;-1.348;2023-08-08T09:51:11;20.70;99.90
4687;DHT22;2357;47.316;-1.348;2023-08-08T09:53:38;20.70;99.90
4687;DHT22;2357;47.316;-1.348;2023-08-08T09:56:05;20.70;99.90
4687;DHT22;2357;47.316;-1.348;2023-08-08T09:58:32;20.80;99.90
4687;DHT22;2357;47.316;-1.348;2023-08-08T10:00:58;20.90;99.90
4687;DHT22;2357;47.316;-1.348;2023-08-08T10:03:24;20.90;99.90
4687;DHT22;2357;47.316;-1.348;2023-08-08T10:05:50;21.00;99.90
4687;DHT22;2357;47.316;-1.348;2023-08-08T10:08:16;20.90;99.90
4687;DHT22;2357;47.316;-1.348;2023-08-08T10:10:46;20.70;99.90
4687;DHT22;2357;47.316;-1.348;2023-08-08T10:13:23;20.90;99.90
4687;DHT22;2357;47.316;-1.348;2023-08-08T10:15:50;21.00;99.90
4687;DHT22;2357;47.316;-1.348;2023-08-08T10:18:17;21.00;99.90
4687;DHT22;2357;47.316;-1.348;2023-08-08T10:20:46;21.00;99.90
4687;DHT22;2357;47.316;-1.348;2023-08-08T10:23:18;21.10;99.90
4687;DHT22;2357;47.316;-1.348;2023-08-08T10:25:48;21.20;99.90
4687;DHT22;2357;47.316;-1.348;2023-08-08T10:28:17;21.30;99.90
4687;DHT22;2357;47.316;-1.348;2023-08-08T10:33:19;21.70;99.90
4687;DHT22;2357;47.316;-1.348;2023-08-08T10:35:58;21.70;99.90
4687;DHT22;2357;47.316;-1.348;2023-08-08T10:38:38;21.50;99.90
4687;DHT22;2357;47.316;-1.348;2023-08-08T10:41:05;21.40;99.90
4687;DHT22;2357;47.316;-1.348;2023-08-08T10:43:33;21.70;99.90
4687;DHT22;2357;47.316;-1.348;2023-08-08T10:46:03;21.80;99.90
4687;DHT22;2357;47.316;-1.348;2023-08-08T10:48:29;21.80;99.90
4687;DHT22;2357;47.316;-1.348;2023-08-08T10:50:58;21.70;99.90
4687;DHT22;2357;47.316;-1.348;2023-08-08T10:53:28;21.90;99.90
4687;DHT22;2357;47.316;-1.348;2023-08-08T10:56:02;21.90;99.90
4687;DHT22;2357;47.316;-1.348;2023-08-08T10:58:39;22.00;99.90
4687;DHT22;2357;47.316;-1.348;2023-08-08T11:01:05;21.90;99.90
4687;DHT22;2357;47.316;-1.348;2023-08-08T11:03:39;22.10;99.90
4687;DHT22;2357;47.316;-1.348;2023-08-08T11:06:08;22.10;99.90
4687;DHT22;2357;47.316;-1.348;2023-08-08T11:08:35;22.30;99.90
4687;DHT22;2357;47.316;-1.348;2023-08-08T11:11:02;22.30;99.90
4687;DHT22;2357;47.316;-1.348;2023-08-08T11:13:29;22.30;99.90
4687;DHT22;2357;47.316;-1.348;2023-08-08T11:15:54;22.30;99.90
4687;DHT22;2357;47.316;-1.348;2023-08-08T11:18:20;22.20;99.90
4687;DHT22;2357;47.316;-1.348;2023-08-08T11:20:48;22.40;99.90
4687;DHT22;2357;47.316;-1.348;2023-08-08T11:23:14;22.40;99.90
4687;DHT22;2357;47.316;-1.348;2023-08-08T11:25:41;22.80;99.90
4687;DHT22;2357;47.316;-1.348;2023-08-08T11:28:09;22.60;99.90
4687;DHT22;2357;47.316;-1.348;2023-08-08T11:30:38;22.80;99.90
4687;DHT22;2357;47.316;-1.348;2023-08-08T11:33:05;22.70;99.90
4687;DHT22;2357;47.316;-1.348;2023-08-08T11:35:31;22.80;99.90
4687;DHT22;2357;47.316;-1.348;2023-08-08T11:37:59;22.80;99.90
4687;DHT22;2357;47.316;-1.348;2023-08-08T11:40:27;22.80;99.90
4687;DHT22;2357;47.316;-1.348;2023-08-08T11:42:54;23.00;99.90
4687;DHT22;2357;47.316;-1.348;2023-08-08T11:45:21;23.30;99.90
4687;DHT22;2357;47.316;-1.348;2023-08-08T11:47:50;23.30;99.90
4687;DHT22;2357;47.316;-1.348;2023-08-08T11:50:19;23.50;99.90
4687;DHT22;2357;47.316;-1.348;2023-08-08T11:52:46;23.50;99.90
4687;DHT22;2357;47.316;-1.348;2023-08-08T11:55:12;23.40;99.90
4687;DHT22;2357;47.316;-1.348;2023-08-08T11:57:39;23.40;99.90
4687;DHT22;2357;47.316;-1.348;2023-08-08T12:00:09;23.60;99.90
4687;DHT22;2357;47.316;-1.348;2023-08-08T12:02:41;23.60;99.90
4687;DHT22;2357;47.316;-1.348;2023-08-08T12:05:09;23.70;99.90
4687;DHT22;2357;47.316;-1.348;2023-08-08T12:07:37;23.50;99.90
4687;DHT22;2357;47.316;-1.348;2023-08-08T12:10:12;24.00;99.90
4687;DHT22;2357;47.316;-1.348;2023-08-08T12:12:38;24.40;99.90
4687;DHT22;2357;47.316;-1.348;2023-08-08T12:15:06;24.50;99.90
4687;DHT22;2357;47.316;-1.348;2023-08-08T12:17:32;24.50;99.90
4687;DHT22;2357;47.316;-1.348;2023-08-08T12:20:02;24.50;99.90
4687;DHT22;2357;47.316;-1.348;2023-08-08T12:22:28;24.50;99.90
4687;DHT22;2357;47.316;-1.348;2023-08-08T12:24:54;24.50;99.90
4687;DHT22;2357;47.316;-1.348;2023-08-08T12:27:19;24.60;99.90
4687;DHT22;2357;47.316;-1.348;2023-08-08T12:29:45;24.60;99.90
4687;DHT22;2357;47.316;-1.348;2023-08-08T12:32:11;24.50;99.90
4687;DHT22;2357;47.316;-1.348;2023-08-08T12:34:36;24.50;99.90
4687;DHT22;2357;47.316;-1.348;2023-08-08T12:37:02;24.70;99.90
4687;DHT22;2357;47.316;-1.348;2023-08-08T12:39:28;24.90;99.90
4687;DHT22;2357;47.316;-1.348;2023-08-08T12:41:54;25.00;99.90
4687;DHT22;2357;47.316;-1.348;2023-08-08T12:44:20;25.20;99.90
4687;DHT22;2357;47.316;-1.348;2023-08-08T12:46:45;25.50;99.90
4687;DHT22;2357;47.316;-1.348;2023-08-08T12:49:11;25.50;99.90
4687;DHT22;2357;47.316;-1.348;2023-08-08T12:51:37;25.60;99.90
4687;DHT22;2357;47.316;-1.348;2023-08-08T12:54:03;25.60;99.90
4687;DHT22;2357;47.316;-1.348;2023-08-08T12:56:28;25.70;99.90
4687;DHT22;2357;47.316;-1.348;2023-08-08T12:58:54;25.60;99.90
4687;DHT22;2357;47.316;-1.348;2023-08-08T13:01:20;25.20;99.90
4687;DHT22;2357;47.316;-1.348;2023-08-08T13:03:45;25.30;99.90
4687;DHT22;2357;47.316;-1.348;2023-08-08T13:06:12;25.60;99.90
4687;DHT22;2357;47.316;-1.348;2023-08-08T13:08:38;25.90;99.90
4687;DHT22;2357;47.316;-1.348;2023-08-08T13:11:04;25.90;99.90
4687;DHT22;2357;47.316;-1.348;2023-08-08T13:13:30;26.00;99.90
4687;DHT22;2357;47.316;-1.348;2023-08-08T13:15:56;26.20;99.90
4687;DHT22;2357;47.316;-1.348;2023-08-08T13:18:22;26.40;99.90
4687;DHT22;2357;47.316;-1.348;2023-08-08T13:20:48;25.80;99.90
4687;DHT22;2357;47.316;-1.348;2023-08-08T13:23:14;25.50;99.90
4687;DHT22;2357;47.316;-1.348;2023-08-08T13:25:40;25.60;99.90
4687;DHT22;2357;47.316;-1.348;2023-08-08T13:28:06;25.70;99.90
4687;DHT22;2357;47.316;-1.348;2023-08-08T13:30:32;25.90;99.90
4687;DHT22;2357;47.316;-1.348;2023-08-08T13:32:59;26.00;99.90
4687;DHT22;2357;47.316;-1.348;2023-08-08T13:35:25;26.00;99.90
4687;DHT22;2357;47.316;-1.348;2023-08-08T13:37:50;26.50;99.90
4687;DHT22;2357;47.316;-1.348;2023-08-08T13:40:18;26.90;99.90
4687;DHT22;2357;47.316;-1.348;2023-08-08T13:42:43;26.90;99.90
4687;DHT22;2357;47.316;-1.348;2023-08-08T13:45:13;26.80;99.90
4687;DHT22;2357;47.316;-1.348;2023-08-08T13:47:39;26.40;99.90
4687;DHT22;2357;47.316;-1.348;2023-08-08T13:50:05;26.20;99.90
4687;DHT22;2357;47.316;-1.348;2023-08-08T13:52:31;26.10;99.90
4687;DHT22;2357;47.316;-1.348;2023-08-08T13:54:58;26.10;99.90
4687;DHT22;2357;47.316;-1.348;2023-08-08T13:57:24;26.20;99.90
4687;DHT22;2357;47.316;-1.348;2023-08-08T13:59:49;26.00;99.90
4687;DHT22;2357;47.316;-1.348;2023-08-08T14:02:15;25.90;99.90
4687;DHT22;2357;47.316;-1.348;2023-08-08T14:04:44;26.20;99.90
4687;DHT22;2357;47.316;-1.348;2023-08-08T14:07:09;26.50;99.90
4687;DHT22;2357;47.316;-1.348;2023-08-08T14:09:35;26.50;99.90
4687;DHT22;2357;47.316;-1.348;2023-08-08T14:12:01;26.60;99.90
4687;DHT22;2357;47.316;-1.348;2023-08-08T14:14:27;26.60;99.90
4687;DHT22;2357;47.316;-1.348;2023-08-08T14:16:52;27.00;99.90
4687;DHT22;2357;47.316;-1.348;2023-08-08T14:19:18;27.10;99.90
4687;DHT22;2357;47.316;-1.348;2023-08-08T14:21:44;26.90;99.90
4687;DHT22;2357;47.316;-1.348;2023-08-08T14:24:10;26.60;99.90
4687;DHT22;2357;47.316;-1.348;2023-08-08T14:26:36;26.00;99.90
4687;DHT22;2357;47.316;-1.348;2023-08-08T14:29:02;25.90;99.90
4687;DHT22;2357;47.316;-1.348;2023-08-08T14:31:28;25.60;99.90
4687;DHT22;2357;47.316;-1.348;2023-08-08T14:33:53;25.60;99.90
4687;DHT22;2357;47.316;-1.348;2023-08-08T14:36:19;25.60;99.90
4687;DHT22;2357;47.316;-1.348;2023-08-08T14:38:44;25.50;99.90
4687;DHT22;2357;47.316;-1.348;2023-08-08T14:41:10;26.10;99.90
4687;DHT22;2357;47.316;-1.348;2023-08-08T14:43:36;26.70;99.90
4687;DHT22;2357;47.316;-1.348;2023-08-08T14:46:01;26.50;99.90
4687;DHT22;2357;47.316;-1.348;2023-08-08T14:48:27;26.80;99.90
4687;DHT22;2357;47.316;-1.348;2023-08-08T14:50:52;27.00;99.90
4687;DHT22;2357;47.316;-1.348;2023-08-08T14:53:18;26.90;99.90
4687;DHT22;2357;47.316;-1.348;2023-08-08T14:55:44;26.50;99.90
4687;DHT22;2357;47.316;-1.348;2023-08-08T14:58:09;26.20;99.90
4687;DHT22;2357;47.316;-1.348;2023-08-08T15:00:35;26.20;99.90
4687;DHT22;2357;47.316;-1.348;2023-08-08T15:03:01;25.90;99.90
4687;DHT22;2357;47.316;-1.348;2023-08-08T15:05:26;26.10;99.90
4687;DHT22;2357;47.316;-1.348;2023-08-08T15:07:52;25.90;99.90
4687;DHT22;2357;47.316;-1.348;2023-08-08T15:10:18;26.00;99.90
4687;DHT22;2357;47.316;-1.348;2023-08-08T15:12:43;25.90;99.90
4687;DHT22;2357;47.316;-1.348;2023-08-08T15:15:09;25.60;99.90
4687;DHT22;2357;47.316;-1.348;2023-08-08T15:17:35;25.80;99.90
4687;DHT22;2357;47.316;-1.348;2023-08-08T15:20:01;25.90;99.90
4687;DHT22;2357;47.316;-1.348;2023-08-08T15:22:26;26.20;99.90
4687;DHT22;2357;47.316;-1.348;2023-08-08T15:24:52;26.30;99.90
4687;DHT22;2357;47.316;-1.348;2023-08-08T15:27:18;26.30;99.90
4687;DHT22;2357;47.316;-1.348;2023-08-08T15:29:45;26.40;99.90
4687;DHT22;2357;47.316;-1.348;2023-08-08T15:32:11;26.40;99.90
4687;DHT22;2357;47.316;-1.348;2023-08-08T15:34:36;26.50;99.90
4687;DHT22;2357;47.316;-1.348;2023-08-08T15:37:02;26.40;99.90
4687;DHT22;2357;47.316;-1.348;2023-08-08T15:39:28;26.70;99.90
4687;DHT22;2357;47.316;-1.348;2023-08-08T15:41:54;26.70;99.90